sensor_id;sensor_type;location;lat;lon;timestamp;temperature;humidity
25128;DHT22;13107;51.304;6.866;2023-02-28T00:00:13;-2.40;99.90
25128;DHT22;13107;51.304;6.866;2023-02-28T00:04:14;-2.40;99.90
25128;DHT22;13107;51.304;6.866;2023-02-28T00:08:16;-2.30;99.90
25128;DHT22;13107;51.304;6.866;2023-02-28T00:12:18;-2.30;99.90
25128;DHT22;13107;51.304;6.866;2023-02-28T00:16:21;-2.30;99.90
25128;DHT22;13107;51.304;6.866;2023-02-28T00:20:24;-2.30;99.90
25128;DHT22;13107;51.304;6.866;2023-02-28T00:24:26;-2.10;99.90
25128;DHT22;13107;51.304;6.866;2023-02-28T00:28:28;-2.00;99.90
25128;DHT22;13107;51.304;6.866;2023-02-28T00:32:30;-1.80;99.90
25128;DHT22;13107;51.304;6.866;2023-02-28T00:36:31;-1.80;99.90
25128;DHT22;13107;51.304;6.866;2023-02-28T00:40:33;-1.80;99.90
25128;DHT22;13107;51.304;6.866;2023-02-28T00:44:35;-1.80;99.90
25128;DHT22;13107;51.304;6.866;2023-02-28T00:48:37;-1.90;99.90
25128;DHT22;13107;51.304;6.866;2023-02-28T00:52:38;-2.00;99.90
25128;DHT22;13107;51.304;6.866;2023-02-28T00:56:40;-2.00;99.90
25128;DHT22;13107;51.304;6.866;2023-02-28T01:00:42;-2.10;99.90
25128;DHT22;13107;51.304;6.866;2023-02-28T01:04:43;-2.20;99.90
25128;DHT22;13107;51.304;6.866;2023-02-28T01:08:45;-2.20;99.90
25128;DHT22;13107;51.304;6.866;2023-02-28T01:12:47;-2.20;99.90
25128;DHT22;13107;51.304;6.866;2023-02-28T01:16:48;-2.30;99.90
25128;DHT22;13107;51.304;6.866;2023-02-28T01:20:50;-2.40;99.90
25128;DHT22;13107;51.304;6.866;2023-02-28T01:24:53;-2.40;99.90
25128;DHT22;13107;51.304;6.866;2023-02-28T01:28:55;-2.40;99.90
25128;DHT22;13107;51.304;6.866;2023-02-28T01:32:57;-2.50;99.90
25128;DHT22;13107;51.304;6.866;2023-02-28T01:36:59;-2.60;99.90
25128;DHT22;13107;51.304;6.866;2023-02-28T01:41:01;-2.60;99.90
25128;DHT22;13107;51.304;6.866;2023-02-28T01:49:24;-2.70;99.90
25128;DHT22;13107;51.304;6.866;2023-02-28T01:53:39;-2.70;99.90
25128;DHT22;13107;51.304;6.866;2023-02-28T01:57:51;-2.80;99.90
25128;DHT22;13107;51.304;6.866;2023-02-28T02:01:54;-2.70;99.90
25128;DHT22;13107;51.304;6.866;2023-02-28T02:05:56;-2.80;99.90
25128;DHT22;13107;51.304;6.866;2023-02-28T02:10:21;-2.90;99.90
25128;DHT22;13107;51.304;6.866;2023-02-28T02:14:30;-2.90;99.90
25128;DHT22;13107;51.304;6.866;2023-02-28T02:18:53;-2.90;99.90
25128;DHT22;13107;51.304;6.866;2023-02-28T02:27:32;-3.00;99.90
25128;DHT22;13107;51.304;6.866;2023-02-28T02:31:48;-3.00;99.90
25128;DHT22;13107;51.304;6.866;2023-02-28T02:35:55;-3.00;99.90
25128;DHT22;13107;51.304;6.866;2023-02-28T02:40:12;-3.00;99.90
25128;DHT22;13107;51.304;6.866;2023-02-28T02:44:23;-3.00;99.90
25128;DHT22;13107;51.304;6.866;2023-02-28T02:48:29;-3.10;99.90
25128;DHT22;13107;51.304;6.866;2023-02-28T02:52:40;-3.10;99.90
25128;DHT22;13107;51.304;6.866;2023-02-28T02:56:47;-3.10;99.90
25128;DHT22;13107;51.304;6.866;2023-02-28T03:00:53;-3.20;99.90
25128;DHT22;13107;51.304;6.866;2023-02-28T03:05:01;-3.20;99.90
25128;DHT22;13107;51.304;6.866;2023-02-28T03:09:04;-3.20;99.90
25128;DHT22;13107;51.304;6.866;2023-02-28T03:17:41;-3.30;99.90
25128;DHT22;13107;51.304;6.866;2023-02-28T03:22:10;-3.30;99.90
25128;DHT22;13107;51.304;6.866;2023-02-28T03:26:26;-3.40;99.90
25128;DHT22;13107;51.304;6.866;2023-02-28T03:35:07;-3.40;99.90
25128;DHT22;13107;51.304;6.866;2023-02-28T03:39:24;-3.40;99.90
25128;DHT22;13107;51.304;6.866;2023-02-28T03:43:33;-3.50;99.90
25128;DHT22;13107;51.304;6.866;2023-02-28T03:47:49;-3.40;99.90
25128;DHT22;13107;51.304;6.866;2023-02-28T03:51:54;-3.50;99.90
25128;DHT22;13107;51.304;6.866;2023-02-28T03:56:18;-3.50;99.90
25128;DHT22;13107;51.304;6.866;2023-02-28T04:00:26;-3.50;99.90
25128;DHT22;13107;51.304;6.866;2023-02-28T04:04:29;-3.60;99.90
25128;DHT22;13107;51.304;6.866;2023-02-28T04:08:31;-3.60;99.90
25128;DHT22;13107;51.304;6.866;2023-02-28T04:12:33;-3.60;99.90
25128;DHT22;13107;51.304;6.866;2023-02-28T04:16:39;-3.60;99.90
25128;DHT22;13107;51.304;6.866;2023-02-28T04:20:41;-3.70;99.90
25128;DHT22;13107;51.304;6.866;2023-02-28T04:24:43;-3.80;99.90
25128;DHT22;13107;51.304;6.866;2023-02-28T04:28:44;-3.70;99.90
25128;DHT22;13107;51.304;6.866;2023-02-28T04:32:46;-3.70;99.90
25128;DHT22;13107;51.304;6.866;2023-02-28T04:36:48;-3.70;99.90
25128;DHT22;13107;51.304;6.866;2023-02-28T04:41:13;-3.70;99.90
25128;DHT22;13107;51.304;6.866;2023-02-28T04:45:15;-3.70;99.90
25128;DHT22;13107;51.304;6.866;2023-02-28T04:49:18;-3.70;99.90
25128;DHT22;13107;51.304;6.866;2023-02-28T04:53:21;-3.70;99.90
25128;DHT22;13107;51.304;6.866;2023-02-28T04:57:22;-3.80;99.90
25128;DHT22;13107;51.304;6.866;2023-02-28T05:01:28;-3.90;99.90
25128;DHT22;13107;51.304;6.866;2023-02-28T05:05:31;-4.00;99.90
25128;DHT22;13107;51.304;6.866;2023-02-28T05:09:32;-4.00;99.90
25128;DHT22;13107;51.304;6.866;2023-02-28T05:13:34;-4.00;99.90
25128;DHT22;13107;51.304;6.866;2023-02-28T05:17:37;-4.00;99.90
25128;DHT22;13107;51.304;6.866;2023-02-28T05:21:40;-4.00;99.90
25128;DHT22;13107;51.304;6.866;2023-02-28T05:25:42;-4.00;99.90
25128;DHT22;13107;51.304;6.866;2023-02-28T05:29:44;-4.00;99.90
25128;DHT22;13107;51.304;6.866;2023-02-28T05:33:46;-4.00;99.90
25128;DHT22;13107;51.304;6.866;2023-02-28T05:37:48;-4.10;99.90
25128;DHT22;13107;51.304;6.866;2023-02-28T05:41:49;-4.10;99.90
25128;DHT22;13107;51.304;6.866;2023-02-28T05:45:51;-4.10;99.90
25128;DHT22;13107;51.304;6.866;2023-02-28T05:49:53;-4.10;99.90
25128;DHT22;13107;51.304;6.866;2023-02-28T05:53:57;-4.10;99.90
25128;DHT22;13107;51.304;6.866;2023-02-28T05:57:59;-4.10;99.90
25128;DHT22;13107;51.304;6.866;2023-02-28T06:02:01;-4.10;99.90
25128;DHT22;13107;51.304;6.866;2023-02-28T06:06:02;-4.10;99.90
25128;DHT22;13107;51.304;6.866;2023-02-28T06:10:05;-4.10;99.90
25128;DHT22;13107;51.304;6.866;2023-02-28T06:14:07;-4.10;99.90
25128;DHT22;13107;51.304;6.866;2023-02-28T06:18:08;-4.10;99.90
25128;DHT22;13107;51.304;6.866;2023-02-28T06:22:10;-4.10;99.90
25128;DHT22;13107;51.304;6.866;2023-02-28T06:26:12;-4.10;99.90
25128;DHT22;13107;51.304;6.866;2023-02-28T06:30:14;-4.10;99.90
25128;DHT22;13107;51.304;6.866;2023-02-28T06:34:16;-4.10;99.90
25128;DHT22;13107;51.304;6.866;2023-02-28T06:38:18;-4.10;99.90
25128;DHT22;13107;51.304;6.866;2023-02-28T06:42:20;-4.10;99.90
25128;DHT22;13107;51.304;6.866;2023-02-28T06:46:23;-4.00;99.90
25128;DHT22;13107;51.304;6.866;2023-02-28T06:50:25;-4.00;99.90
25128;DHT22;13107;51.304;6.866;2023-02-28T06:54:26;-4.00;99.90
25128;DHT22;13107;51.304;6.866;2023-02-28T06:58:28;-3.90;99.90
25128;DHT22;13107;51.304;6.866;2023-02-28T07:02:30;-3.80;99.90
25128;DHT22;13107;51.304;6.866;2023-02-28T07:06:33;-3.80;99.90
25128;DHT22;13107;51.304;6.866;2023-02-28T07:10:37;-3.80;99.90
25128;DHT22;13107;51.304;6.866;2023-02-28T07:14:39;-3.70;99.90
25128;DHT22;13107;51.304;6.866;2023-02-28T07:18:40;-3.70;99.90
25128;DHT22;13107;51.304;6.866;2023-02-28T07:22:42;-3.70;99.90
25128;DHT22;13107;51.304;6.866;2023-02-28T07:26:44;-3.50;99.90
25128;DHT22;13107;51.304;6.866;2023-02-28T07:30:46;-3.50;99.90
25128;DHT22;13107;51.304;6.866;2023-02-28T07:34:47;-3.40;99.90
25128;DHT22;13107;51.304;6.866;2023-02-28T07:38:49;-3.30;99.90
25128;DHT22;13107;51.304;6.866;2023-02-28T07:42:52;-3.30;99.90
25128;DHT22;13107;51.304;6.866;2023-02-28T07:46:53;-3.20;99.90
25128;DHT22;13107;51.304;6.866;2023-02-28T07:50:56;-3.10;99.90
25128;DHT22;13107;51.304;6.866;2023-02-28T07:54:58;-3.00;99.90
25128;DHT22;13107;51.304;6.866;2023-02-28T07:59:00;-2.90;99.90
25128;DHT22;13107;51.304;6.866;2023-02-28T08:03:03;-2.80;99.90
25128;DHT22;13107;51.304;6.866;2023-02-28T08:07:05;-2.60;99.90
25128;DHT22;13107;51.304;6.866;2023-02-28T08:11:06;-2.60;99.90
25128;DHT22;13107;51.304;6.866;2023-02-28T08:15:08;-2.40;99.90
25128;DHT22;13107;51.304;6.866;2023-02-28T08:19:10;-2.30;99.90
25128;DHT22;13107;51.304;6.866;2023-02-28T08:23:12;-2.20;99.90
25128;DHT22;13107;51.304;6.866;2023-02-28T08:27:14;-2.00;99.90
25128;DHT22;13107;51.304;6.866;2023-02-28T08:31:16;-1.80;99.90
25128;DHT22;13107;51.304;6.866;2023-02-28T08:35:18;-1.60;99.90
25128;DHT22;13107;51.304;6.866;2023-02-28T08:39:20;-1.40;99.90
25128;DHT22;13107;51.304;6.866;2023-02-28T08:43:22;-1.20;99.90
25128;DHT22;13107;51.304;6.866;2023-02-28T08:47:23;-1.10;99.90
25128;DHT22;13107;51.304;6.866;2023-02-28T08:51:25;-0.90;99.90
25128;DHT22;13107;51.304;6.866;2023-02-28T08:55:28;-0.50;99.90
25128;DHT22;13107;51.304;6.866;2023-02-28T08:59:30;-0.30;99.90
25128;DHT22;13107;51.304;6.866;2023-02-28T09:03:32;0.00;99.90
25128;DHT22;13107;51.304;6.866;2023-02-28T09:07:33;0.10;99.90
25128;DHT22;13107;51.304;6.866;2023-02-28T09:11:35;0.30;99.90
25128;DHT22;13107;51.304;6.866;2023-02-28T09:15:38;0.70;99.90
25128;DHT22;13107;51.304;6.866;2023-02-28T09:19:40;1.30;99.90
25128;DHT22;13107;51.304;6.866;2023-02-28T09:23:42;2.00;99.90
25128;DHT22;13107;51.304;6.866;2023-02-28T09:27:44;2.90;99.90
25128;DHT22;13107;51.304;6.866;2023-02-28T09:31:47;3.40;99.90
25128;DHT22;13107;51.304;6.866;2023-02-28T09:35:49;4.30;99.90
25128;DHT22;13107;51.304;6.866;2023-02-28T09:39:51;4.60;99.90
25128;DHT22;13107;51.304;6.866;2023-02-28T09:43:56;4.50;99.90
25128;DHT22;13107;51.304;6.866;2023-02-28T09:48:14;4.20;99.90
25128;DHT22;13107;51.304;6.866;2023-02-28T09:52:20;4.20;99.90
25128;DHT22;13107;51.304;6.866;2023-02-28T09:56:40;3.70;99.90
25128;DHT22;13107;51.304;6.866;2023-02-28T10:00:42;3.20;99.90
25128;DHT22;13107;51.304;6.866;2023-02-28T10:04:56;3.40;99.90
25128;DHT22;13107;51.304;6.866;2023-02-28T10:09:06;3.20;99.90
25128;DHT22;13107;51.304;6.866;2023-02-28T10:17:39;3.30;99.90
25128;DHT22;13107;51.304;6.866;2023-02-28T10:22:05;3.10;99.90
25128;DHT22;13107;51.304;6.866;2023-02-28T10:26:12;3.00;99.90
25128;DHT22;13107;51.304;6.866;2023-02-28T10:30:15;3.40;99.90
25128;DHT22;13107;51.304;6.866;2023-02-28T10:34:16;3.40;99.90
25128;DHT22;13107;51.304;6.866;2023-02-28T10:38:34;3.30;99.90
25128;DHT22;13107;51.304;6.866;2023-02-28T10:42:36;3.60;99.90
25128;DHT22;13107;51.304;6.866;2023-02-28T10:46:41;3.40;99.70
25128;DHT22;13107;51.304;6.866;2023-02-28T10:55:15;3.80;99.90
25128;DHT22;13107;51.304;6.866;2023-02-28T11:03:35;3.20;99.90
25128;DHT22;13107;51.304;6.866;2023-02-28T11:07:38;3.20;99.90
25128;DHT22;13107;51.304;6.866;2023-02-28T11:11:53;3.30;99.90
25128;DHT22;13107;51.304;6.866;2023-02-28T11:15:58;3.20;99.90
25128;DHT22;13107;51.304;6.866;2023-02-28T11:20:10;3.10;99.90
25128;DHT22;13107;51.304;6.866;2023-02-28T11:24:41;3.10;99.90
25128;DHT22;13107;51.304;6.866;2023-02-28T11:28:44;2.90;99.90
25128;DHT22;13107;51.304;6.866;2023-02-28T11:32:49;2.80;99.90
25128;DHT22;13107;51.304;6.866;2023-02-28T11:36:54;2.90;99.90
25128;DHT22;13107;51.304;6.866;2023-02-28T11:50:14;3.50;98.90
25128;DHT22;13107;51.304;6.866;2023-02-28T11:54:03;3.50;99.00
25128;DHT22;13107;51.304;6.866;2023-02-28T12:28:40;5.60;91.60
25128;DHT22;13107;51.304;6.866;2023-02-28T12:32:47;5.80;92.70
25128;DHT22;13107;51.304;6.866;2023-02-28T12:36:52;7.10;90.40
25128;DHT22;13107;51.304;6.866;2023-02-28T12:41:03;7.20;86.40
25128;DHT22;13107;51.304;6.866;2023-02-28T12:45:12;7.40;82.20
25128;DHT22;13107;51.304;6.866;2023-02-28T12:49:21;6.80;83.20
25128;DHT22;13107;51.304;6.866;2023-02-28T13:07:00;6.30;86.90
25128;DHT22;13107;51.304;6.866;2023-02-28T13:11:05;7.10;84.10
25128;DHT22;13107;51.304;6.866;2023-02-28T13:15:26;7.50;81.90
25128;DHT22;13107;51.304;6.866;2023-02-28T13:19:32;7.50;79.40
25128;DHT22;13107;51.304;6.866;2023-02-28T13:27:59;8.40;76.90
25128;DHT22;13107;51.304;6.866;2023-02-28T13:40:34;8.80;75.20
25128;DHT22;13107;51.304;6.866;2023-02-28T13:49:25;9.40;71.80
25128;DHT22;13107;51.304;6.866;2023-02-28T13:53:54;10.00;68.50
25128;DHT22;13107;51.304;6.866;2023-02-28T14:06:57;11.00;63.20
25128;DHT22;13107;51.304;6.866;2023-02-28T14:11:06;10.00;63.60
25128;DHT22;13107;51.304;6.866;2023-02-28T14:19:30;9.90;66.60
25128;DHT22;13107;51.304;6.866;2023-02-28T14:37:02;9.40;66.10
25128;DHT22;13107;51.304;6.866;2023-02-28T14:41:22;9.20;66.20
25128;DHT22;13107;51.304;6.866;2023-02-28T14:45:24;9.00;70.90
25128;DHT22;13107;51.304;6.866;2023-02-28T14:49:28;8.80;69.90
25128;DHT22;13107;51.304;6.866;2023-02-28T14:53:36;7.60;72.20
25128;DHT22;13107;51.304;6.866;2023-02-28T14:57:51;6.70;78.20
25128;DHT22;13107;51.304;6.866;2023-02-28T15:02:21;6.10;81.80
25128;DHT22;13107;51.304;6.866;2023-02-28T15:06:23;5.60;85.00
25128;DHT22;13107;51.304;6.866;2023-02-28T15:10:28;5.50;88.80
25128;DHT22;13107;51.304;6.866;2023-02-28T15:14:31;5.20;90.30
25128;DHT22;13107;51.304;6.866;2023-02-28T15:18:49;5.20;91.50
25128;DHT22;13107;51.304;6.866;2023-02-28T15:22:53;5.10;90.80
25128;DHT22;13107;51.304;6.866;2023-02-28T15:27:04;4.90;91.10
25128;DHT22;13107;51.304;6.866;2023-02-28T15:31:23;4.90;92.10
25128;DHT22;13107;51.304;6.866;2023-02-28T15:35:29;4.80;92.30
25128;DHT22;13107;51.304;6.866;2023-02-28T15:39:41;4.80;93.40
25128;DHT22;13107;51.304;6.866;2023-02-28T15:43:43;4.80;94.60
25128;DHT22;13107;51.304;6.866;2023-02-28T15:47:47;4.70;93.50
25128;DHT22;13107;51.304;6.866;2023-02-28T15:51:51;4.60;95.40
25128;DHT22;13107;51.304;6.866;2023-02-28T15:55:59;4.60;96.40
25128;DHT22;13107;51.304;6.866;2023-02-28T16:00:03;4.50;96.40
25128;DHT22;13107;51.304;6.866;2023-02-28T16:04:15;4.40;97.10
25128;DHT22;13107;51.304;6.866;2023-02-28T16:08:17;4.40;98.10
25128;DHT22;13107;51.304;6.866;2023-02-28T16:12:20;4.30;98.40
25128;DHT22;13107;51.304;6.866;2023-02-28T16:16:24;4.30;98.40
25128;DHT22;13107;51.304;6.866;2023-02-28T16:20:30;4.20;99.00
25128;DHT22;13107;51.304;6.866;2023-02-28T16:24:31;4.10;99.60
25128;DHT22;13107;51.304;6.866;2023-02-28T16:28:36;4.00;99.50
25128;DHT22;13107;51.304;6.866;2023-02-28T16:32:38;4.10;99.90
25128;DHT22;13107;51.304;6.866;2023-02-28T16:36:39;3.90;99.90
25128;DHT22;13107;51.304;6.866;2023-02-28T16:40:42;3.90;99.90
25128;DHT22;13107;51.304;6.866;2023-02-28T16:44:44;3.70;99.90
25128;DHT22;13107;51.304;6.866;2023-02-28T16:48:47;3.70;99.90
25128;DHT22;13107;51.304;6.866;2023-02-28T16:52:52;3.50;99.90
25128;DHT22;13107;51.304;6.866;2023-02-28T16:56:55;3.50;99.90
25128;DHT22;13107;51.304;6.866;2023-02-28T17:00:57;3.40;99.90
25128;DHT22;13107;51.304;6.866;2023-02-28T17:04:59;3.30;99.90
25128;DHT22;13107;51.304;6.866;2023-02-28T17:09:01;3.20;99.90
25128;DHT22;13107;51.304;6.866;2023-02-28T17:13:02;3.00;99.90
25128;DHT22;13107;51.304;6.866;2023-02-28T17:17:21;2.90;99.90
25128;DHT22;13107;51.304;6.866;2023-02-28T17:21:23;2.90;99.90
25128;DHT22;13107;51.304;6.866;2023-02-28T17:25:24;2.80;99.90
25128;DHT22;13107;51.304;6.866;2023-02-28T17:29:26;2.80;99.90
25128;DHT22;13107;51.304;6.866;2023-02-28T17:33:28;2.70;99.90
25128;DHT22;13107;51.304;6.866;2023-02-28T17:37:30;2.70;99.90
25128;DHT22;13107;51.304;6.866;2023-02-28T17:41:31;2.60;99.90
25128;DHT22;13107;51.304;6.866;2023-02-28T17:45:33;2.50;99.90
25128;DHT22;13107;51.304;6.866;2023-02-28T17:49:37;2.50;99.90
25128;DHT22;13107;51.304;6.866;2023-02-28T17:53:39;2.40;99.90
25128;DHT22;13107;51.304;6.866;2023-02-28T17:57:40;2.20;99.90
25128;DHT22;13107;51.304;6.866;2023-02-28T18:01:43;2.20;99.90
25128;DHT22;13107;51.304;6.866;2023-02-28T18:05:45;2.00;99.90
25128;DHT22;13107;51.304;6.866;2023-02-28T18:09:47;1.90;99.90
25128;DHT22;13107;51.304;6.866;2023-02-28T18:13:52;1.80;99.90
25128;DHT22;13107;51.304;6.866;2023-02-28T18:17:54;1.70;99.90
25128;DHT22;13107;51.304;6.866;2023-02-28T18:21:56;1.60;99.90
25128;DHT22;13107;51.304;6.866;2023-02-28T18:25:57;1.50;99.90
25128;DHT22;13107;51.304;6.866;2023-02-28T18:29:59;1.30;99.90
25128;DHT22;13107;51.304;6.866;2023-02-28T18:34:01;1.20;99.90
25128;DHT22;13107;51.304;6.866;2023-02-28T18:38:05;1.10;99.90
25128;DHT22;13107;51.304;6.866;2023-02-28T18:42:07;0.90;99.90
25128;DHT22;13107;51.304;6.866;2023-02-28T18:46:12;0.70;99.90
25128;DHT22;13107;51.304;6.866;2023-02-28T18:50:14;0.60;99.90
25128;DHT22;13107;51.304;6.866;2023-02-28T18:54:16;0.50;99.90
25128;DHT22;13107;51.304;6.866;2023-02-28T18:58:20;0.40;99.90
25128;DHT22;13107;51.304;6.866;2023-02-28T19:02:21;0.20;99.90
25128;DHT22;13107;51.304;6.866;2023-02-28T19:06:23;0.10;99.90
25128;DHT22;13107;51.304;6.866;2023-02-28T19:10:25;0.00;99.90
25128;DHT22;13107;51.304;6.866;2023-02-28T19:14:26;-0.20;99.90
25128;DHT22;13107;51.304;6.866;2023-02-28T19:18:28;-0.30;99.90
25128;DHT22;13107;51.304;6.866;2023-02-28T19:22:30;-0.40;99.90
25128;DHT22;13107;51.304;6.866;2023-02-28T19:26:32;-0.40;99.90
25128;DHT22;13107;51.304;6.866;2023-02-28T19:30:34;-0.50;99.90
25128;DHT22;13107;51.304;6.866;2023-02-28T19:34:36;-0.50;99.90
25128;DHT22;13107;51.304;6.866;2023-02-28T19:38:38;-0.70;99.90
25128;DHT22;13107;51.304;6.866;2023-02-28T19:42:40;-0.70;99.90
25128;DHT22;13107;51.304;6.866;2023-02-28T19:46:41;-0.80;99.90
25128;DHT22;13107;51.304;6.866;2023-02-28T19:50:44;-0.80;99.90
25128;DHT22;13107;51.304;6.866;2023-02-28T19:54:46;-0.80;99.90
25128;DHT22;13107;51.304;6.866;2023-02-28T19:58:48;-0.90;99.90
25128;DHT22;13107;51.304;6.866;2023-02-28T20:02:50;-0.90;99.90
25128;DHT22;13107;51.304;6.866;2023-02-28T20:06:52;-1.00;99.90
25128;DHT22;13107;51.304;6.866;2023-02-28T20:10:54;-1.00;99.90
25128;DHT22;13107;51.304;6.866;2023-02-28T20:14:56;-1.00;99.90
25128;DHT22;13107;51.304;6.866;2023-02-28T20:18:58;-1.10;99.90
25128;DHT22;13107;51.304;6.866;2023-02-28T20:22:59;-1.10;99.90
25128;DHT22;13107;51.304;6.866;2023-02-28T20:27:02;-1.20;99.90
25128;DHT22;13107;51.304;6.866;2023-02-28T20:31:30;-1.20;99.90
25128;DHT22;13107;51.304;6.866;2023-02-28T20:35:32;-1.30;99.90
25128;DHT22;13107;51.304;6.866;2023-02-28T20:39:34;-1.30;99.90
25128;DHT22;13107;51.304;6.866;2023-02-28T20:43:37;-1.40;99.90
25128;DHT22;13107;51.304;6.866;2023-02-28T20:47:39;-1.40;99.90
25128;DHT22;13107;51.304;6.866;2023-02-28T20:51:43;-1.40;99.90
25128;DHT22;13107;51.304;6.866;2023-02-28T20:56:04;-1.30;99.90
25128;DHT22;13107;51.304;6.866;2023-02-28T21:00:07;-1.50;99.90
25128;DHT22;13107;51.304;6.866;2023-02-28T21:04:16;-1.50;99.90
25128;DHT22;13107;51.304;6.866;2023-02-28T21:08:17;-1.60;99.90
25128;DHT22;13107;51.304;6.866;2023-02-28T21:12:19;-1.70;99.90
25128;DHT22;13107;51.304;6.866;2023-02-28T21:16:23;-1.70;99.90
25128;DHT22;13107;51.304;6.866;2023-02-28T21:20:25;-1.70;99.90
25128;DHT22;13107;51.304;6.866;2023-02-28T21:24:27;-1.70;99.90
25128;DHT22;13107;51.304;6.866;2023-02-28T21:28:29;-1.70;99.90
25128;DHT22;13107;51.304;6.866;2023-02-28T21:32:31;-1.80;99.90
25128;DHT22;13107;51.304;6.866;2023-02-28T21:36:38;-1.80;99.90
25128;DHT22;13107;51.304;6.866;2023-02-28T21:40:40;-1.80;99.90
25128;DHT22;13107;51.304;6.866;2023-02-28T21:44:42;-1.90;99.90
25128;DHT22;13107;51.304;6.866;2023-02-28T21:48:44;-1.90;99.90
25128;DHT22;13107;51.304;6.866;2023-02-28T21:52:45;-2.00;99.90
25128;DHT22;13107;51.304;6.866;2023-02-28T21:56:47;-1.90;99.90
25128;DHT22;13107;51.304;6.866;2023-02-28T22:00:51;-1.90;99.90
25128;DHT22;13107;51.304;6.866;2023-02-28T22:04:52;-2.00;99.90
25128;DHT22;13107;51.304;6.866;2023-02-28T22:08:56;-2.00;99.90
25128;DHT22;13107;51.304;6.866;2023-02-28T22:12:58;-2.10;99.90
25128;DHT22;13107;51.304;6.866;2023-02-28T22:17:02;-2.10;99.90
25128;DHT22;13107;51.304;6.866;2023-02-28T22:21:05;-2.10;99.90
25128;DHT22;13107;51.304;6.866;2023-02-28T22:25:07;-2.10;99.90
25128;DHT22;13107;51.304;6.866;2023-02-28T22:29:12;-2.20;99.90
25128;DHT22;13107;51.304;6.866;2023-02-28T22:33:14;-2.20;99.90
25128;DHT22;13107;51.304;6.866;2023-02-28T22:37:16;-2.30;99.90
25128;DHT22;13107;51.304;6.866;2023-02-28T22:41:21;-2.30;99.90
25128;DHT22;13107;51.304;6.866;2023-02-28T22:45:23;-2.40;99.90
25128;DHT22;13107;51.304;6.866;2023-02-28T22:49:25;-2.40;99.90
25128;DHT22;13107;51.304;6.866;2023-02-28T22:53:28;-2.40;99.90
25128;DHT22;13107;51.304;6.866;2023-02-28T22:57:30;-2.40;99.90
25128;DHT22;13107;51.304;6.866;2023-02-28T23:01:32;-2.40;99.90
25128;DHT22;13107;51.304;6.866;2023-02-28T23:05:34;-2.40;99.90
25128;DHT22;13107;51.304;6.866;2023-02-28T23:09:36;-2.50;99.90
25128;DHT22;13107;51.304;6.866;2023-02-28T23:13:38;-2.50;99.90
25128;DHT22;13107;51.304;6.866;2023-02-28T23:17:39;-2.50;99.90
25128;DHT22;13107;51.304;6.866;2023-02-28T23:21:42;-2.50;99.90
25128;DHT22;13107;51.304;6.866;2023-02-28T23:25:44;-2.60;99.90
25128;DHT22;13107;51.304;6.866;2023-02-28T23:29:46;-2.60;99.90
25128;DHT22;13107;51.304;6.866;2023-02-28T23:33:48;-2.60;99.90
25128;DHT22;13107;51.304;6.866;2023-02-28T23:37:50;-2.70;99.90
25128;DHT22;13107;51.304;6.866;2023-02-28T23:41:52;-2.70;99.90
25128;DHT22;13107;51.304;6.866;2023-02-28T23:45:56;-2.80;99.90
25128;DHT22;13107;51.304;6.866;2023-02-28T23:49:58;-2.80;99.90
25128;DHT22;13107;51.304;6.866;2023-02-28T23:54:00;-2.80;99.90
25128;DHT22;13107;51.304;6.866;2023-02-28T23:58:03;-2.90;99.90
